sensor_id;sensor_type;location;lat;lon;timestamp;P1;durP1;ratioP1;P2;durP2;ratioP2
12208;SDS011;6167;43.080;25.634;2024-01-30T00:01:38;18.93;;;12.37;;
12208;SDS011;6167;43.080;25.634;2024-01-30T00:04:05;19.37;;;12.00;;
12208;SDS011;6167;43.080;25.634;2024-01-30T00:06:33;20.17;;;12.70;;
12208;SDS011;6167;43.080;25.634;2024-01-30T00:09:00;17.10;;;11.97;;
12208;SDS011;6167;43.080;25.634;2024-01-30T00:11:27;19.40;;;12.03;;
12208;SDS011;6167;43.080;25.634;2024-01-30T00:13:54;16.97;;;11.20;;
12208;SDS011;6167;43.080;25.634;2024-01-30T00:16:21;19.53;;;12.30;;
12208;SDS011;6167;43.080;25.634;2024-01-30T00:18:49;20.23;;;11.90;;
12208;SDS011;6167;43.080;25.634;2024-01-30T00:21:16;19.27;;;12.43;;
12208;SDS011;6167;43.080;25.634;2024-01-30T00:23:44;19.00;;;12.20;;
12208;SDS011;6167;43.080;25.634;2024-01-30T00:26:11;17.50;;;10.87;;
12208;SDS011;6167;43.080;25.634;2024-01-30T00:28:40;18.00;;;11.13;;
12208;SDS011;6167;43.080;25.634;2024-01-30T00:31:08;18.27;;;12.30;;
12208;SDS011;6167;43.080;25.634;2024-01-30T00:33:37;20.03;;;12.47;;
12208;SDS011;6167;43.080;25.634;2024-01-30T00:36:04;20.37;;;12.27;;
12208;SDS011;6167;43.080;25.634;2024-01-30T00:38:31;18.80;;;11.90;;
12208;SDS011;6167;43.080;25.634;2024-01-30T00:41:00;19.27;;;11.97;;
12208;SDS011;6167;43.080;25.634;2024-01-30T00:43:28;19.53;;;11.67;;
12208;SDS011;6167;43.080;25.634;2024-01-30T00:45:56;18.07;;;11.90;;
12208;SDS011;6167;43.080;25.634;2024-01-30T00:48:23;19.13;;;12.27;;
12208;SDS011;6167;43.080;25.634;2024-01-30T00:50:50;18.37;;;12.43;;
12208;SDS011;6167;43.080;25.634;2024-01-30T00:53:17;18.47;;;12.43;;
12208;SDS011;6167;43.080;25.634;2024-01-30T00:55:43;17.73;;;12.03;;
12208;SDS011;6167;43.080;25.634;2024-01-30T00:58:12;20.10;;;13.30;;
12208;SDS011;6167;43.080;25.634;2024-01-30T01:00:39;16.83;;;10.87;;
12208;SDS011;6167;43.080;25.634;2024-01-30T01:03:06;17.23;;;11.77;;
12208;SDS011;6167;43.080;25.634;2024-01-30T01:05:32;21.60;;;11.83;;
12208;SDS011;6167;43.080;25.634;2024-01-30T01:08:02;18.00;;;11.77;;
12208;SDS011;6167;43.080;25.634;2024-01-30T01:10:29;18.07;;;11.30;;
12208;SDS011;6167;43.080;25.634;2024-01-30T01:12:56;16.40;;;10.77;;
12208;SDS011;6167;43.080;25.634;2024-01-30T01:15:24;16.13;;;11.40;;
12208;SDS011;6167;43.080;25.634;2024-01-30T01:17:51;17.43;;;11.60;;
12208;SDS011;6167;43.080;25.634;2024-01-30T01:20:18;16.90;;;10.70;;
12208;SDS011;6167;43.080;25.634;2024-01-30T01:22:45;17.07;;;10.80;;
12208;SDS011;6167;43.080;25.634;2024-01-30T01:25:12;15.83;;;10.63;;
12208;SDS011;6167;43.080;25.634;2024-01-30T01:27:39;16.80;;;11.30;;
12208;SDS011;6167;43.080;25.634;2024-01-30T01:30:08;18.87;;;11.80;;
12208;SDS011;6167;43.080;25.634;2024-01-30T01:32:38;18.70;;;11.93;;
12208;SDS011;6167;43.080;25.634;2024-01-30T01:35:09;17.73;;;11.17;;
12208;SDS011;6167;43.080;25.634;2024-01-30T01:37:36;17.57;;;12.17;;
12208;SDS011;6167;43.080;25.634;2024-01-30T01:40:04;17.00;;;11.53;;
12208;SDS011;6167;43.080;25.634;2024-01-30T01:42:31;15.47;;;10.50;;
12208;SDS011;6167;43.080;25.634;2024-01-30T01:44:58;16.33;;;10.77;;
12208;SDS011;6167;43.080;25.634;2024-01-30T01:47:25;16.33;;;10.90;;
12208;SDS011;6167;43.080;25.634;2024-01-30T01:49:53;18.40;;;11.17;;
12208;SDS011;6167;43.080;25.634;2024-01-30T01:52:20;16.97;;;11.17;;
12208;SDS011;6167;43.080;25.634;2024-01-30T01:54:47;18.03;;;11.63;;
12208;SDS011;6167;43.080;25.634;2024-01-30T01:57:14;16.77;;;10.87;;
12208;SDS011;6167;43.080;25.634;2024-01-30T01:59:41;18.50;;;11.47;;
12208;SDS011;6167;43.080;25.634;2024-01-30T02:02:08;16.63;;;10.80;;
12208;SDS011;6167;43.080;25.634;2024-01-30T02:04:39;19.70;;;11.30;;
12208;SDS011;6167;43.080;25.634;2024-01-30T02:07:07;16.67;;;11.30;;
12208;SDS011;6167;43.080;25.634;2024-01-30T02:09:34;16.07;;;10.37;;
12208;SDS011;6167;43.080;25.634;2024-01-30T02:12:01;17.13;;;11.23;;
12208;SDS011;6167;43.080;25.634;2024-01-30T02:14:28;18.80;;;11.63;;
12208;SDS011;6167;43.080;25.634;2024-01-30T02:16:55;20.17;;;11.33;;
12208;SDS011;6167;43.080;25.634;2024-01-30T02:19:22;17.47;;;11.23;;
12208;SDS011;6167;43.080;25.634;2024-01-30T02:21:50;17.40;;;11.10;;
12208;SDS011;6167;43.080;25.634;2024-01-30T02:24:18;16.03;;;10.73;;
12208;SDS011;6167;43.080;25.634;2024-01-30T02:26:45;16.93;;;11.10;;
12208;SDS011;6167;43.080;25.634;2024-01-30T02:29:12;16.33;;;10.80;;
12208;SDS011;6167;43.080;25.634;2024-01-30T02:31:39;15.90;;;10.47;;
12208;SDS011;6167;43.080;25.634;2024-01-30T02:34:05;17.23;;;11.03;;
12208;SDS011;6167;43.080;25.634;2024-01-30T02:36:32;18.67;;;11.17;;
12208;SDS011;6167;43.080;25.634;2024-01-30T02:39:00;16.77;;;10.77;;
12208;SDS011;6167;43.080;25.634;2024-01-30T02:41:27;17.47;;;10.80;;
12208;SDS011;6167;43.080;25.634;2024-01-30T02:43:54;17.00;;;10.73;;
12208;SDS011;6167;43.080;25.634;2024-01-30T02:46:21;18.27;;;11.93;;
12208;SDS011;6167;43.080;25.634;2024-01-30T02:48:48;16.87;;;10.83;;
12208;SDS011;6167;43.080;25.634;2024-01-30T02:51:15;18.07;;;11.00;;
12208;SDS011;6167;43.080;25.634;2024-01-30T02:53:41;15.60;;;10.53;;
12208;SDS011;6167;43.080;25.634;2024-01-30T02:56:10;18.17;;;11.03;;
12208;SDS011;6167;43.080;25.634;2024-01-30T02:58:38;15.60;;;11.40;;
12208;SDS011;6167;43.080;25.634;2024-01-30T03:01:05;17.07;;;11.53;;
12208;SDS011;6167;43.080;25.634;2024-01-30T03:03:32;16.07;;;10.57;;
12208;SDS011;6167;43.080;25.634;2024-01-30T03:06:01;16.30;;;10.77;;
12208;SDS011;6167;43.080;25.634;2024-01-30T03:08:28;14.97;;;10.20;;
12208;SDS011;6167;43.080;25.634;2024-01-30T03:10:55;18.77;;;12.53;;
12208;SDS011;6167;43.080;25.634;2024-01-30T03:13:23;19.53;;;11.43;;
12208;SDS011;6167;43.080;25.634;2024-01-30T03:15:50;18.70;;;12.00;;
12208;SDS011;6167;43.080;25.634;2024-01-30T03:18:17;16.53;;;11.43;;
12208;SDS011;6167;43.080;25.634;2024-01-30T03:20:44;17.93;;;11.57;;
12208;SDS011;6167;43.080;25.634;2024-01-30T03:23:10;17.80;;;11.53;;
12208;SDS011;6167;43.080;25.634;2024-01-30T03:25:37;18.07;;;10.77;;
12208;SDS011;6167;43.080;25.634;2024-01-30T03:28:04;17.93;;;11.77;;
12208;SDS011;6167;43.080;25.634;2024-01-30T03:30:33;16.57;;;11.20;;
12208;SDS011;6167;43.080;25.634;2024-01-30T03:33:00;16.47;;;11.13;;
12208;SDS011;6167;43.080;25.634;2024-01-30T03:35:27;17.63;;;12.20;;
12208;SDS011;6167;43.080;25.634;2024-01-30T03:37:54;18.30;;;12.07;;
12208;SDS011;6167;43.080;25.634;2024-01-30T03:40:21;16.83;;;11.53;;
12208;SDS011;6167;43.080;25.634;2024-01-30T03:42:48;16.30;;;11.30;;
12208;SDS011;6167;43.080;25.634;2024-01-30T03:45:15;17.87;;;12.00;;
12208;SDS011;6167;43.080;25.634;2024-01-30T03:47:46;18.70;;;10.90;;
12208;SDS011;6167;43.080;25.634;2024-01-30T03:50:12;18.67;;;11.67;;
12208;SDS011;6167;43.080;25.634;2024-01-30T03:52:39;16.70;;;11.37;;
12208;SDS011;6167;43.080;25.634;2024-01-30T03:55:06;16.50;;;11.50;;
12208;SDS011;6167;43.080;25.634;2024-01-30T03:57:34;17.97;;;11.83;;
12208;SDS011;6167;43.080;25.634;2024-01-30T04:00:00;17.03;;;11.47;;
12208;SDS011;6167;43.080;25.634;2024-01-30T04:02:31;18.23;;;11.50;;
12208;SDS011;6167;43.080;25.634;2024-01-30T04:04:59;18.17;;;11.70;;
12208;SDS011;6167;43.080;25.634;2024-01-30T04:07:26;17.47;;;12.00;;
12208;SDS011;6167;43.080;25.634;2024-01-30T04:09:53;16.23;;;11.23;;
12208;SDS011;6167;43.080;25.634;2024-01-30T04:12:21;17.23;;;11.47;;
12208;SDS011;6167;43.080;25.634;2024-01-30T04:14:48;16.57;;;11.50;;
12208;SDS011;6167;43.080;25.634;2024-01-30T04:17:15;17.50;;;11.03;;
12208;SDS011;6167;43.080;25.634;2024-01-30T04:19:41;16.13;;;10.57;;
12208;SDS011;6167;43.080;25.634;2024-01-30T04:22:10;16.40;;;10.87;;
12208;SDS011;6167;43.080;25.634;2024-01-30T04:24:37;16.37;;;10.77;;
12208;SDS011;6167;43.080;25.634;2024-01-30T04:27:04;18.17;;;11.83;;
12208;SDS011;6167;43.080;25.634;2024-01-30T04:29:30;16.43;;;10.87;;
12208;SDS011;6167;43.080;25.634;2024-01-30T04:31:59;15.67;;;10.63;;
12208;SDS011;6167;43.080;25.634;2024-01-30T04:34:26;16.47;;;11.40;;
12208;SDS011;6167;43.080;25.634;2024-01-30T04:36:53;17.00;;;10.27;;
12208;SDS011;6167;43.080;25.634;2024-01-30T04:39:21;14.30;;;10.67;;
12208;SDS011;6167;43.080;25.634;2024-01-30T04:41:48;18.50;;;11.50;;
12208;SDS011;6167;43.080;25.634;2024-01-30T04:44:14;17.70;;;11.37;;
12208;SDS011;6167;43.080;25.634;2024-01-30T04:46:41;17.97;;;11.83;;
12208;SDS011;6167;43.080;25.634;2024-01-30T04:49:08;21.77;;;13.67;;
12208;SDS011;6167;43.080;25.634;2024-01-30T04:51:35;15.17;;;10.27;;
12208;SDS011;6167;43.080;25.634;2024-01-30T04:54:02;18.23;;;12.40;;
12208;SDS011;6167;43.080;25.634;2024-01-30T04:56:31;16.93;;;11.90;;
12208;SDS011;6167;43.080;25.634;2024-01-30T04:58:57;17.73;;;11.67;;
12208;SDS011;6167;43.080;25.634;2024-01-30T05:01:24;17.47;;;12.47;;
12208;SDS011;6167;43.080;25.634;2024-01-30T05:03:51;17.53;;;11.27;;
12208;SDS011;6167;43.080;25.634;2024-01-30T05:06:23;17.27;;;11.40;;
12208;SDS011;6167;43.080;25.634;2024-01-30T05:08:51;18.70;;;12.20;;
12208;SDS011;6167;43.080;25.634;2024-01-30T05:11:17;22.60;;;12.90;;
12208;SDS011;6167;43.080;25.634;2024-01-30T05:13:46;17.60;;;11.97;;
12208;SDS011;6167;43.080;25.634;2024-01-30T05:16:13;19.93;;;12.37;;
12208;SDS011;6167;43.080;25.634;2024-01-30T05:18:40;18.57;;;11.83;;
12208;SDS011;6167;43.080;25.634;2024-01-30T05:21:07;17.47;;;12.03;;
12208;SDS011;6167;43.080;25.634;2024-01-30T05:23:33;17.90;;;11.07;;
12208;SDS011;6167;43.080;25.634;2024-01-30T05:26:00;18.80;;;11.80;;
12208;SDS011;6167;43.080;25.634;2024-01-30T05:28:28;17.00;;;11.47;;
12208;SDS011;6167;43.080;25.634;2024-01-30T05:30:57;20.10;;;12.57;;
12208;SDS011;6167;43.080;25.634;2024-01-30T05:33:24;19.70;;;12.50;;
12208;SDS011;6167;43.080;25.634;2024-01-30T05:35:51;18.23;;;12.10;;
12208;SDS011;6167;43.080;25.634;2024-01-30T05:38:19;21.47;;;12.07;;
12208;SDS011;6167;43.080;25.634;2024-01-30T05:40:46;16.47;;;11.60;;
12208;SDS011;6167;43.080;25.634;2024-01-30T05:43:13;18.33;;;11.07;;
12208;SDS011;6167;43.080;25.634;2024-01-30T05:45:40;16.67;;;11.17;;
12208;SDS011;6167;43.080;25.634;2024-01-30T05:48:09;17.00;;;11.63;;
12208;SDS011;6167;43.080;25.634;2024-01-30T05:50:35;19.63;;;11.87;;
12208;SDS011;6167;43.080;25.634;2024-01-30T05:53:02;18.07;;;11.77;;
12208;SDS011;6167;43.080;25.634;2024-01-30T05:55:30;18.73;;;11.20;;
12208;SDS011;6167;43.080;25.634;2024-01-30T05:57:57;16.37;;;11.23;;
12208;SDS011;6167;43.080;25.634;2024-01-30T06:00:24;16.57;;;11.00;;
12208;SDS011;6167;43.080;25.634;2024-01-30T06:02:51;18.27;;;11.63;;
12208;SDS011;6167;43.080;25.634;2024-01-30T06:05:19;20.60;;;11.03;;
12208;SDS011;6167;43.080;25.634;2024-01-30T06:07:46;17.97;;;11.83;;
12208;SDS011;6167;43.080;25.634;2024-01-30T06:10:13;19.23;;;11.87;;
12208;SDS011;6167;43.080;25.634;2024-01-30T06:12:40;17.40;;;11.60;;
12208;SDS011;6167;43.080;25.634;2024-01-30T06:15:07;15.90;;;11.13;;
12208;SDS011;6167;43.080;25.634;2024-01-30T06:17:35;16.80;;;10.87;;
12208;SDS011;6167;43.080;25.634;2024-01-30T06:20:02;14.97;;;10.37;;
12208;SDS011;6167;43.080;25.634;2024-01-30T06:22:31;17.43;;;11.30;;
12208;SDS011;6167;43.080;25.634;2024-01-30T06:24:58;16.37;;;10.53;;
12208;SDS011;6167;43.080;25.634;2024-01-30T06:27:25;17.90;;;11.43;;
12208;SDS011;6167;43.080;25.634;2024-01-30T06:29:52;17.37;;;11.33;;
12208;SDS011;6167;43.080;25.634;2024-01-30T06:32:19;15.77;;;10.53;;
12208;SDS011;6167;43.080;25.634;2024-01-30T06:34:46;15.00;;;10.67;;
12208;SDS011;6167;43.080;25.634;2024-01-30T06:37:13;16.33;;;11.20;;
12208;SDS011;6167;43.080;25.634;2024-01-30T06:39:41;16.77;;;10.80;;
12208;SDS011;6167;43.080;25.634;2024-01-30T06:42:09;15.20;;;11.00;;
12208;SDS011;6167;43.080;25.634;2024-01-30T06:44:37;16.73;;;10.57;;
12208;SDS011;6167;43.080;25.634;2024-01-30T06:47:04;16.47;;;10.53;;
12208;SDS011;6167;43.080;25.634;2024-01-30T06:49:31;17.53;;;11.20;;
12208;SDS011;6167;43.080;25.634;2024-01-30T06:51:57;15.13;;;10.63;;
12208;SDS011;6167;43.080;25.634;2024-01-30T06:54:24;17.20;;;11.23;;
12208;SDS011;6167;43.080;25.634;2024-01-30T06:56:53;17.57;;;11.93;;
12208;SDS011;6167;43.080;25.634;2024-01-30T06:59:20;21.43;;;12.90;;
12208;SDS011;6167;43.080;25.634;2024-01-30T07:01:46;16.60;;;10.63;;
12208;SDS011;6167;43.080;25.634;2024-01-30T07:04:13;15.83;;;11.17;;
12208;SDS011;6167;43.080;25.634;2024-01-30T07:06:41;16.77;;;10.93;;
12208;SDS011;6167;43.080;25.634;2024-01-30T07:09:08;16.87;;;10.63;;
12208;SDS011;6167;43.080;25.634;2024-01-30T07:11:35;15.50;;;10.77;;
12208;SDS011;6167;43.080;25.634;2024-01-30T07:14:03;15.97;;;10.70;;
12208;SDS011;6167;43.080;25.634;2024-01-30T07:16:30;17.13;;;11.90;;
12208;SDS011;6167;43.080;25.634;2024-01-30T07:18:57;18.50;;;11.10;;
12208;SDS011;6167;43.080;25.634;2024-01-30T07:21:24;18.60;;;11.83;;
12208;SDS011;6167;43.080;25.634;2024-01-30T07:23:53;16.10;;;11.17;;
12208;SDS011;6167;43.080;25.634;2024-01-30T07:26:20;18.00;;;11.47;;
12208;SDS011;6167;43.080;25.634;2024-01-30T07:28:47;18.50;;;12.00;;
12208;SDS011;6167;43.080;25.634;2024-01-30T07:31:16;18.47;;;11.37;;
12208;SDS011;6167;43.080;25.634;2024-01-30T07:33:45;15.00;;;10.40;;
12208;SDS011;6167;43.080;25.634;2024-01-30T07:36:13;16.90;;;11.10;;
12208;SDS011;6167;43.080;25.634;2024-01-30T07:38:39;16.23;;;11.00;;
12208;SDS011;6167;43.080;25.634;2024-01-30T07:41:06;18.30;;;11.40;;
12208;SDS011;6167;43.080;25.634;2024-01-30T07:43:33;16.80;;;11.17;;
12208;SDS011;6167;43.080;25.634;2024-01-30T07:46:01;15.27;;;11.33;;
12208;SDS011;6167;43.080;25.634;2024-01-30T07:48:31;19.30;;;11.67;;
12208;SDS011;6167;43.080;25.634;2024-01-30T07:51:00;17.23;;;12.00;;
12208;SDS011;6167;43.080;25.634;2024-01-30T07:53:29;17.03;;;11.33;;
12208;SDS011;6167;43.080;25.634;2024-01-30T07:55:56;17.47;;;11.20;;
12208;SDS011;6167;43.080;25.634;2024-01-30T07:58:29;16.50;;;11.10;;
12208;SDS011;6167;43.080;25.634;2024-01-30T08:00:55;17.33;;;11.13;;
12208;SDS011;6167;43.080;25.634;2024-01-30T08:03:23;21.53;;;11.23;;
12208;SDS011;6167;43.080;25.634;2024-01-30T08:05:52;16.37;;;11.80;;
12208;SDS011;6167;43.080;25.634;2024-01-30T08:08:18;17.77;;;12.40;;
12208;SDS011;6167;43.080;25.634;2024-01-30T08:10:45;20.13;;;12.20;;
12208;SDS011;6167;43.080;25.634;2024-01-30T08:13:13;17.97;;;11.37;;
12208;SDS011;6167;43.080;25.634;2024-01-30T08:15:40;16.00;;;11.10;;
12208;SDS011;6167;43.080;25.634;2024-01-30T08:18:07;17.80;;;12.93;;
12208;SDS011;6167;43.080;25.634;2024-01-30T08:20:34;20.97;;;13.83;;
12208;SDS011;6167;43.080;25.634;2024-01-30T08:23:02;16.20;;;11.00;;
12208;SDS011;6167;43.080;25.634;2024-01-30T08:25:29;17.77;;;11.27;;
12208;SDS011;6167;43.080;25.634;2024-01-30T08:27:56;19.63;;;12.73;;
12208;SDS011;6167;43.080;25.634;2024-01-30T08:30:23;19.60;;;13.00;;
12208;SDS011;6167;43.080;25.634;2024-01-30T08:32:50;19.47;;;13.07;;
12208;SDS011;6167;43.080;25.634;2024-01-30T08:35:17;17.87;;;12.33;;
12208;SDS011;6167;43.080;25.634;2024-01-30T08:37:44;16.83;;;11.77;;
12208;SDS011;6167;43.080;25.634;2024-01-30T08:40:13;17.70;;;12.17;;
12208;SDS011;6167;43.080;25.634;2024-01-30T08:42:41;16.87;;;11.23;;
12208;SDS011;6167;43.080;25.634;2024-01-30T08:45:08;14.83;;;10.40;;
12208;SDS011;6167;43.080;25.634;2024-01-30T08:47:36;18.27;;;11.83;;
12208;SDS011;6167;43.080;25.634;2024-01-30T08:50:03;16.37;;;11.60;;
12208;SDS011;6167;43.080;25.634;2024-01-30T08:52:31;16.63;;;10.60;;
12208;SDS011;6167;43.080;25.634;2024-01-30T08:54:59;19.47;;;12.97;;
12208;SDS011;6167;43.080;25.634;2024-01-30T08:57:27;16.50;;;11.20;;
12208;SDS011;6167;43.080;25.634;2024-01-30T09:00:03;18.67;;;12.07;;
12208;SDS011;6167;43.080;25.634;2024-01-30T09:02:35;18.87;;;12.60;;
12208;SDS011;6167;43.080;25.634;2024-01-30T09:05:02;16.67;;;11.30;;
12208;SDS011;6167;43.080;25.634;2024-01-30T09:07:30;16.03;;;10.53;;
12208;SDS011;6167;43.080;25.634;2024-01-30T09:09:57;15.23;;;9.97;;
12208;SDS011;6167;43.080;25.634;2024-01-30T09:12:24;15.33;;;10.73;;
12208;SDS011;6167;43.080;25.634;2024-01-30T09:14:52;15.57;;;11.13;;
12208;SDS011;6167;43.080;25.634;2024-01-30T09:17:22;16.03;;;10.80;;
12208;SDS011;6167;43.080;25.634;2024-01-30T09:19:49;15.27;;;10.70;;
12208;SDS011;6167;43.080;25.634;2024-01-30T09:22:16;17.80;;;10.77;;
12208;SDS011;6167;43.080;25.634;2024-01-30T09:24:43;15.83;;;10.50;;
12208;SDS011;6167;43.080;25.634;2024-01-30T09:27:10;16.00;;;11.03;;
12208;SDS011;6167;43.080;25.634;2024-01-30T09:29:37;15.03;;;11.93;;
12208;SDS011;6167;43.080;25.634;2024-01-30T09:32:06;16.33;;;11.03;;
12208;SDS011;6167;43.080;25.634;2024-01-30T09:34:34;17.97;;;12.57;;
12208;SDS011;6167;43.080;25.634;2024-01-30T09:37:01;24.77;;;13.13;;
12208;SDS011;6167;43.080;25.634;2024-01-30T09:39:30;20.53;;;12.83;;
12208;SDS011;6167;43.080;25.634;2024-01-30T09:42:01;16.33;;;11.27;;
12208;SDS011;6167;43.080;25.634;2024-01-30T09:44:31;21.33;;;12.30;;
12208;SDS011;6167;43.080;25.634;2024-01-30T09:47:01;15.90;;;11.43;;
12208;SDS011;6167;43.080;25.634;2024-01-30T09:49:32;15.47;;;10.50;;
12208;SDS011;6167;43.080;25.634;2024-01-30T09:52:01;15.10;;;10.93;;
12208;SDS011;6167;43.080;25.634;2024-01-30T09:54:29;16.60;;;11.73;;
12208;SDS011;6167;43.080;25.634;2024-01-30T09:56:57;15.50;;;10.73;;
12208;SDS011;6167;43.080;25.634;2024-01-30T09:59:24;17.43;;;11.70;;
12208;SDS011;6167;43.080;25.634;2024-01-30T10:01:53;18.10;;;13.33;;
12208;SDS011;6167;43.080;25.634;2024-01-30T10:04:20;14.63;;;10.77;;
12208;SDS011;6167;43.080;25.634;2024-01-30T10:06:48;17.60;;;11.73;;
12208;SDS011;6167;43.080;25.634;2024-01-30T10:09:17;19.30;;;11.77;;
12208;SDS011;6167;43.080;25.634;2024-01-30T10:11:44;17.47;;;12.20;;
12208;SDS011;6167;43.080;25.634;2024-01-30T10:14:11;23.17;;;14.70;;
12208;SDS011;6167;43.080;25.634;2024-01-30T10:16:38;27.47;;;15.90;;
12208;SDS011;6167;43.080;25.634;2024-01-30T10:19:05;17.33;;;11.77;;
12208;SDS011;6167;43.080;25.634;2024-01-30T10:21:32;16.20;;;11.80;;
12208;SDS011;6167;43.080;25.634;2024-01-30T10:24:01;15.57;;;11.07;;
12208;SDS011;6167;43.080;25.634;2024-01-30T10:26:28;18.17;;;11.80;;
12208;SDS011;6167;43.080;25.634;2024-01-30T10:28:58;17.23;;;12.67;;
12208;SDS011;6167;43.080;25.634;2024-01-30T10:31:25;16.97;;;12.70;;
12208;SDS011;6167;43.080;25.634;2024-01-30T10:33:52;16.20;;;11.50;;
12208;SDS011;6167;43.080;25.634;2024-01-30T10:36:19;16.90;;;11.17;;
12208;SDS011;6167;43.080;25.634;2024-01-30T10:38:54;24.53;;;13.30;;
12208;SDS011;6167;43.080;25.634;2024-01-30T10:41:26;16.83;;;10.43;;
12208;SDS011;6167;43.080;25.634;2024-01-30T10:43:55;12.97;;;9.63;;
12208;SDS011;6167;43.080;25.634;2024-01-30T10:46:29;16.20;;;10.50;;
12208;SDS011;6167;43.080;25.634;2024-01-30T10:48:59;13.73;;;10.07;;
12208;SDS011;6167;43.080;25.634;2024-01-30T10:51:27;14.87;;;10.63;;
12208;SDS011;6167;43.080;25.634;2024-01-30T10:53:55;15.73;;;10.73;;
12208;SDS011;6167;43.080;25.634;2024-01-30T10:56:23;12.30;;;9.10;;
12208;SDS011;6167;43.080;25.634;2024-01-30T10:58:52;15.93;;;11.20;;
12208;SDS011;6167;43.080;25.634;2024-01-30T11:01:20;13.90;;;9.43;;
12208;SDS011;6167;43.080;25.634;2024-01-30T11:03:49;16.63;;;11.53;;
12208;SDS011;6167;43.080;25.634;2024-01-30T11:06:17;15.90;;;11.43;;
12208;SDS011;6167;43.080;25.634;2024-01-30T11:08:46;14.97;;;9.60;;
12208;SDS011;6167;43.080;25.634;2024-01-30T11:11:13;14.33;;;10.30;;
12208;SDS011;6167;43.080;25.634;2024-01-30T11:13:44;12.67;;;9.17;;
12208;SDS011;6167;43.080;25.634;2024-01-30T11:16:12;13.83;;;10.10;;
12208;SDS011;6167;43.080;25.634;2024-01-30T11:18:39;16.10;;;11.80;;
12208;SDS011;6167;43.080;25.634;2024-01-30T11:21:06;22.50;;;15.30;;
12208;SDS011;6167;43.080;25.634;2024-01-30T11:23:33;17.53;;;12.50;;
12208;SDS011;6167;43.080;25.634;2024-01-30T11:26:01;22.13;;;12.60;;
12208;SDS011;6167;43.080;25.634;2024-01-30T11:28:33;13.37;;;8.97;;
12208;SDS011;6167;43.080;25.634;2024-01-30T11:31:04;15.70;;;12.07;;
12208;SDS011;6167;43.080;25.634;2024-01-30T11:33:33;14.53;;;9.77;;
12208;SDS011;6167;43.080;25.634;2024-01-30T11:36:00;18.40;;;10.43;;
12208;SDS011;6167;43.080;25.634;2024-01-30T11:38:28;13.43;;;9.80;;
12208;SDS011;6167;43.080;25.634;2024-01-30T11:40:57;14.93;;;11.13;;
12208;SDS011;6167;43.080;25.634;2024-01-30T11:43:24;16.37;;;11.07;;
12208;SDS011;6167;43.080;25.634;2024-01-30T11:45:51;16.27;;;10.83;;
12208;SDS011;6167;43.080;25.634;2024-01-30T11:48:18;17.73;;;10.97;;
12208;SDS011;6167;43.080;25.634;2024-01-30T11:50:47;14.60;;;10.67;;
12208;SDS011;6167;43.080;25.634;2024-01-30T11:53:14;14.27;;;10.50;;
12208;SDS011;6167;43.080;25.634;2024-01-30T11:55:41;13.30;;;10.40;;
12208;SDS011;6167;43.080;25.634;2024-01-30T11:58:15;13.00;;;9.37;;
12208;SDS011;6167;43.080;25.634;2024-01-30T12:00:42;14.07;;;10.57;;
12208;SDS011;6167;43.080;25.634;2024-01-30T12:03:09;14.13;;;9.87;;
12208;SDS011;6167;43.080;25.634;2024-01-30T12:05:37;14.00;;;9.90;;
12208;SDS011;6167;43.080;25.634;2024-01-30T12:08:13;17.37;;;13.47;;
12208;SDS011;6167;43.080;25.634;2024-01-30T12:10:44;14.80;;;10.70;;
12208;SDS011;6167;43.080;25.634;2024-01-30T12:13:10;13.47;;;9.10;;
12208;SDS011;6167;43.080;25.634;2024-01-30T12:15:38;15.47;;;10.03;;
12208;SDS011;6167;43.080;25.634;2024-01-30T12:18:05;12.23;;;8.40;;
12208;SDS011;6167;43.080;25.634;2024-01-30T12:20:33;13.37;;;9.77;;
12208;SDS011;6167;43.080;25.634;2024-01-30T12:23:00;14.53;;;10.07;;
12208;SDS011;6167;43.080;25.634;2024-01-30T12:25:29;13.33;;;10.17;;
12208;SDS011;6167;43.080;25.634;2024-01-30T12:27:56;14.70;;;9.63;;
12208;SDS011;6167;43.080;25.634;2024-01-30T12:30:25;13.03;;;9.50;;
12208;SDS011;6167;43.080;25.634;2024-01-30T12:32:51;14.33;;;9.13;;
12208;SDS011;6167;43.080;25.634;2024-01-30T12:35:19;15.90;;;10.63;;
12208;SDS011;6167;43.080;25.634;2024-01-30T12:37:47;15.63;;;9.63;;
12208;SDS011;6167;43.080;25.634;2024-01-30T12:40:14;12.03;;;8.73;;
12208;SDS011;6167;43.080;25.634;2024-01-30T12:42:43;11.90;;;9.33;;
12208;SDS011;6167;43.080;25.634;2024-01-30T12:45:14;15.27;;;9.20;;
12208;SDS011;6167;43.080;25.634;2024-01-30T12:47:45;12.33;;;8.53;;
12208;SDS011;6167;43.080;25.634;2024-01-30T12:50:12;11.47;;;8.50;;
12208;SDS011;6167;43.080;25.634;2024-01-30T12:52:42;11.70;;;8.70;;
12208;SDS011;6167;43.080;25.634;2024-01-30T12:55:09;14.97;;;10.00;;
12208;SDS011;6167;43.080;25.634;2024-01-30T12:57:39;15.40;;;10.10;;
12208;SDS011;6167;43.080;25.634;2024-01-30T13:00:19;12.93;;;8.97;;
12208;SDS011;6167;43.080;25.634;2024-01-30T13:02:47;13.43;;;9.70;;
12208;SDS011;6167;43.080;25.634;2024-01-30T13:05:15;13.20;;;8.80;;
12208;SDS011;6167;43.080;25.634;2024-01-30T13:07:42;12.97;;;9.87;;
12208;SDS011;6167;43.080;25.634;2024-01-30T13:10:11;11.90;;;9.13;;
12208;SDS011;6167;43.080;25.634;2024-01-30T13:12:38;14.93;;;9.70;;
12208;SDS011;6167;43.080;25.634;2024-01-30T13:15:05;14.10;;;9.77;;
12208;SDS011;6167;43.080;25.634;2024-01-30T13:17:34;15.03;;;10.60;;
12208;SDS011;6167;43.080;25.634;2024-01-30T13:20:01;11.90;;;9.33;;
12208;SDS011;6167;43.080;25.634;2024-01-30T13:22:29;17.67;;;11.00;;
12208;SDS011;6167;43.080;25.634;2024-01-30T13:24:56;14.47;;;10.03;;
12208;SDS011;6167;43.080;25.634;2024-01-30T13:27:26;24.63;;;18.73;;
12208;SDS011;6167;43.080;25.634;2024-01-30T13:29:56;14.87;;;11.87;;
12208;SDS011;6167;43.080;25.634;2024-01-30T13:32:23;15.17;;;10.60;;
12208;SDS011;6167;43.080;25.634;2024-01-30T13:34:51;14.97;;;10.33;;
12208;SDS011;6167;43.080;25.634;2024-01-30T13:37:18;17.73;;;11.40;;
12208;SDS011;6167;43.080;25.634;2024-01-30T13:39:45;14.37;;;9.50;;
12208;SDS011;6167;43.080;25.634;2024-01-30T13:42:15;15.00;;;9.93;;
12208;SDS011;6167;43.080;25.634;2024-01-30T13:44:42;12.57;;;8.77;;
12208;SDS011;6167;43.080;25.634;2024-01-30T13:47:10;10.97;;;7.73;;
12208;SDS011;6167;43.080;25.634;2024-01-30T13:49:37;10.57;;;7.37;;
12208;SDS011;6167;43.080;25.634;2024-01-30T13:52:06;11.57;;;8.43;;
12208;SDS011;6167;43.080;25.634;2024-01-30T13:54:33;9.97;;;6.80;;
12208;SDS011;6167;43.080;25.634;2024-01-30T13:57:00;8.60;;;6.90;;
12208;SDS011;6167;43.080;25.634;2024-01-30T13:59:28;13.10;;;8.33;;
12208;SDS011;6167;43.080;25.634;2024-01-30T14:01:55;11.70;;;8.97;;
12208;SDS011;6167;43.080;25.634;2024-01-30T14:04:23;15.27;;;8.50;;
12208;SDS011;6167;43.080;25.634;2024-01-30T14:06:50;9.67;;;7.57;;
12208;SDS011;6167;43.080;25.634;2024-01-30T14:09:19;12.70;;;9.27;;
12208;SDS011;6167;43.080;25.634;2024-01-30T14:11:47;12.13;;;8.30;;
12208;SDS011;6167;43.080;25.634;2024-01-30T14:14:14;11.57;;;7.50;;
12208;SDS011;6167;43.080;25.634;2024-01-30T14:16:41;9.83;;;7.27;;
12208;SDS011;6167;43.080;25.634;2024-01-30T14:19:08;9.93;;;7.20;;
12208;SDS011;6167;43.080;25.634;2024-01-30T14:21:35;9.50;;;7.67;;
12208;SDS011;6167;43.080;25.634;2024-01-30T14:24:05;12.63;;;9.10;;
12208;SDS011;6167;43.080;25.634;2024-01-30T14:26:33;12.27;;;9.10;;